Mount Judea, AR (72655)

5:25 PM CST on December 18, 2014 (GMT -0600)
Parthenon AR | Change Station
CLOSE
Current Station
Personal Weather Station
Location: Parthenon, AR
Elevation: 1119 ft
Nearby Weather Stations

Elev 1119 ft 35.95 °N, 93.28 °W | Updated 3 minutes ago

Overcast
Overcast
41.2 °F
Feels Like 41 °F
N
0.0
Wind Variable Wind from South
Gusts 0.0 mph

Today
High -- | Low -- °F
--% Chance of Precip.
Yesterday
High -- | Low -- °F
Precip. -- in
7:16 AM 5:00 PM
Waning Crescent, 11% visible
Pressure 30.18 in
Visibility 7.0 miles
Clouds Overcast 600 ft
Windchill 41 °F
Dew Point 39 °F
Humidity 91%
Rainfall 0.01 in
Snow Depth Not available.
UV 0 out of 12
Pollen 4.40 out of 12
Air Quality Not available.
Flu Activity Not available.
METAR KHRO 182253Z AUTO 00000KT 7SM OVC006 04/03 A3015 RMK AO2 SLP218 T00390033

More Conditions Fewer Conditions

Pressure 30.18 in
Visibility 7.0 miles
Clouds Overcast 600 ft
Windchill 41 °F
Dew Point 39 °F
Humidity 91%
Rainfall 0.01 in
Snow Depth Not available.
UV 0 out of 12
Pollen 4.40 out of 12
Air Quality Not available.
Flu Activity Not available.
METAR KHRO 182253Z AUTO 00000KT 7SM OVC006 04/03 A3015 RMK AO2 SLP218 T00390033

More Conditions Fewer Conditions

10-Day Weather Forecast

Almanac

Astronomy

Dec. 18, 2014 Rise Set
Actual Time
Civil Twilight
Nautical Twilight
Astronomical Twilight
Moon
Length of Visible Light
Length of Day
Tomorrow will be .
, % of the Moon is Illuminated

Today's Extremes

State Highs State Lows

Community

WunderPhotos

Upload Photos

1,779,017 photos uploaded!

WunderBlogs® & News

Nearby

Air Quality

  Air Quality AQ Index Pollutant
Not available.

Snow Depth

Station Depth Elevation

Earthquake Activity

City Distance Mag. Time & Date
Minimum magnitude displayed is 2.5.

Coastal Water Temperatures

Place Temperature

Nearby Weather Stations